createdAt,value
2022-08-11T00:01:56.132Z,2.00
2022-08-11T00:04:25.839Z,2.10
2022-08-11T00:06:53.680Z,2.00
2022-08-11T00:09:24.146Z,2.00
2022-08-11T00:11:58.799Z,2.20
2022-08-11T00:14:36.801Z,2.00
2022-08-11T00:17:09.030Z,1.93
2022-08-11T00:20:12.052Z,2.10
2022-08-11T00:22:25.651Z,2.13
2022-08-11T00:24:56.206Z,2.13
2022-08-11T00:27:34.645Z,2.00
2022-08-11T00:30:01.688Z,2.10
2022-08-11T00:32:28.996Z,1.80
2022-08-11T00:35:50.977Z,1.93
2022-08-11T00:37:49.928Z,2.40
2022-08-11T00:40:28.377Z,2.07
2022-08-11T00:43:20.005Z,2.07
2022-08-11T00:46:08.277Z,2.00
2022-08-11T00:49:07.143Z,1.80
2022-08-11T00:52:05.842Z,2.30
2022-08-11T00:54:38.905Z,2.10
2022-08-11T00:57:38.443Z,2.00
2022-08-11T01:00:19.638Z,2.10
2022-08-11T01:03:10.530Z,2.10
2022-08-11T01:06:08.914Z,1.97
2022-08-11T01:09:05.740Z,1.70
2022-08-11T01:12:05.174Z,2.20
2022-08-11T01:14:55.993Z,2.20
2022-08-11T01:17:57.390Z,1.93
2022-08-11T01:20:46.493Z,2.20
2022-08-11T01:23:50.545Z,2.10
2022-08-11T01:26:35.985Z,2.00
2022-08-11T01:29:13.201Z,1.90
2022-08-11T01:32:01.461Z,2.17
2022-08-11T01:34:28.172Z,1.97
2022-08-11T01:37:03.791Z,1.90
2022-08-11T01:40:03.726Z,2.10
2022-08-11T01:43:06.916Z,2.20
2022-08-11T01:46:10.939Z,2.10
2022-08-11T01:48:45.229Z,1.97
2022-08-11T01:51:43.219Z,1.90
2022-08-11T01:54:34.996Z,2.30
2022-08-11T01:57:42.684Z,2.00
2022-08-11T02:00:19.348Z,2.00
2022-08-11T02:02:58.274Z,2.30
2022-08-11T02:05:33.912Z,2.00
2022-08-11T02:08:19.457Z,1.80
2022-08-11T02:11:31.115Z,1.87
2022-08-11T02:14:38.064Z,1.93
2022-08-11T02:17:20.912Z,1.90
2022-08-11T02:20:44.752Z,1.70
2022-08-11T02:24:07.272Z,2.10
2022-08-11T02:26:42.282Z,2.13
2022-08-11T02:29:25.016Z,2.00
2022-08-11T02:32:30.694Z,2.17
2022-08-11T02:35:19.032Z,2.20
2022-08-11T02:38:05.572Z,2.10
2022-08-11T02:40:51.102Z,2.10
2022-08-11T02:43:35.554Z,2.23
2022-08-11T02:46:22.510Z,2.27
2022-08-11T02:49:45.114Z,2.10
2022-08-11T02:52:20.404Z,2.37
2022-08-11T02:55:55.592Z,1.93
2022-08-11T02:58:35.488Z,2.20
2022-08-11T03:01:13.117Z,1.87
2022-08-11T03:03:51.459Z,2.23
2022-08-11T03:06:36.056Z,2.20
2022-08-11T03:09:14.594Z,2.13
2022-08-11T03:12:27.116Z,2.03
2022-08-11T03:15:42.595Z,2.20
2022-08-11T03:18:33.246Z,2.30
2022-08-11T03:21:07.014Z,2.43
2022-08-11T03:23:52.452Z,2.20
2022-08-11T03:26:33.317Z,2.23
2022-08-11T03:29:12.145Z,2.07
2022-08-11T03:32:01.929Z,2.27
2022-08-11T03:34:30.402Z,2.10
2022-08-11T03:37:51.743Z,2.00
2022-08-11T03:42:01.665Z,2.37
2022-08-11T03:44:18.868Z,2.30
2022-08-11T03:47:01.973Z,2.13
2022-08-11T03:49:39.188Z,2.40
2022-08-11T03:52:22.188Z,2.57
2022-08-11T03:55:04.896Z,2.37
2022-08-11T03:57:49.546Z,2.37
2022-08-11T04:00:24.950Z,2.17
2022-08-11T04:03:19.258Z,2.17
2022-08-11T04:05:50.685Z,2.40
2022-08-11T04:08:35.237Z,2.53
2022-08-11T04:11:17.755Z,2.70
2022-08-11T04:14:41.187Z,2.30
2022-08-11T04:17:42.708Z,2.30
2022-08-11T04:20:55.509Z,2.37
2022-08-11T04:24:34.486Z,2.40
2022-08-11T04:27:14.146Z,2.50
2022-08-11T04:30:05.629Z,2.43
2022-08-11T04:32:47.599Z,2.40
2022-08-11T04:35:35.000Z,2.40
2022-08-11T04:38:20.242Z,2.43
2022-08-11T04:41:16.307Z,2.40
2022-08-11T04:44:04.622Z,2.70
2022-08-11T04:47:12.902Z,2.80
2022-08-11T04:50:11.017Z,2.67
2022-08-11T04:53:17.607Z,2.60
2022-08-11T04:56:35.856Z,2.60
2022-08-11T04:59:46.167Z,2.75
2022-08-11T05:02:54.594Z,2.60
2022-08-11T05:05:56.310Z,2.60
2022-08-11T05:08:54.420Z,2.57
2022-08-11T05:12:02.008Z,2.50
2022-08-11T05:15:12.110Z,2.47
2022-08-11T05:18:15.841Z,2.78
2022-08-11T05:21:09.425Z,2.50
2022-08-11T05:23:59.383Z,2.53
2022-08-11T05:26:49.179Z,2.42
2022-08-11T05:30:01.193Z,2.80
2022-08-11T05:32:58.030Z,2.80
2022-08-11T05:36:01.551Z,2.40
2022-08-11T05:38:49.690Z,2.70
2022-08-11T05:41:39.137Z,2.67
2022-08-11T05:44:25.089Z,2.58
2022-08-11T05:47:10.393Z,2.53
2022-08-11T05:49:57.911Z,2.70
2022-08-11T05:52:49.196Z,2.60
2022-08-11T05:56:02.330Z,2.70
2022-08-11T05:58:42.035Z,2.72
2022-08-11T06:01:13.928Z,2.65
2022-08-11T06:04:03.196Z,2.67
2022-08-11T06:06:30.296Z,2.70
2022-08-11T06:08:58.362Z,2.75
2022-08-11T06:11:43.270Z,2.60
2022-08-11T06:14:12.337Z,2.50
2022-08-11T06:16:41.568Z,2.70
2022-08-11T06:19:09.045Z,2.60
2022-08-11T06:21:36.244Z,2.72
2022-08-11T06:24:12.454Z,2.40
2022-08-11T06:27:01.738Z,2.90
2022-08-11T06:29:37.540Z,2.70
2022-08-11T06:32:05.381Z,2.55
2022-08-11T06:34:51.273Z,2.50
2022-08-11T06:37:43.410Z,2.78
2022-08-11T06:40:33.654Z,2.70
2022-08-11T06:43:10.149Z,2.60
2022-08-11T06:46:03.258Z,2.40
2022-08-11T06:48:32.455Z,2.78
2022-08-11T06:51:14.850Z,2.75
2022-08-11T06:54:03.511Z,2.80
2022-08-11T06:57:06.714Z,2.83
2022-08-11T06:59:59.338Z,2.70
2022-08-11T07:02:33.887Z,2.70
2022-08-11T07:05:11.878Z,2.70
2022-08-11T07:08:34.734Z,2.78
2022-08-11T07:11:56.791Z,2.33
2022-08-11T07:14:46.883Z,2.70
2022-08-11T07:17:20.085Z,2.50
2022-08-11T07:20:10.681Z,2.53
2022-08-11T07:22:56.290Z,2.47
2022-08-11T07:25:43.482Z,2.63
2022-08-11T07:28:37.075Z,2.63
2022-08-11T07:31:07.781Z,2.50
2022-08-11T07:34:08.200Z,2.60
2022-08-11T07:36:40.618Z,2.72
2022-08-11T07:39:15.186Z,2.70
2022-08-11T07:41:42.373Z,2.50
2022-08-11T07:44:09.888Z,3.53
2022-08-11T07:47:00.839Z,3.33
2022-08-11T07:49:48.117Z,3.00
2022-08-11T07:52:28.396Z,2.75
2022-08-11T07:54:58.173Z,2.60
2022-08-11T07:58:14.303Z,2.72
2022-08-11T08:01:23.910Z,2.70
2022-08-11T08:04:09.932Z,2.45
2022-08-11T08:06:55.490Z,2.40
2022-08-11T08:09:41.586Z,2.40
2022-08-11T08:12:28.097Z,2.80
2022-08-11T08:15:14.338Z,2.70
2022-08-11T08:18:09.162Z,2.50
2022-08-11T08:20:49.953Z,2.67
2022-08-11T08:23:33.520Z,2.50
2022-08-11T08:26:04.399Z,2.45
2022-08-11T08:28:32.669Z,2.53
2022-08-11T08:31:00.068Z,2.40
2022-08-11T08:33:28.858Z,2.40
2022-08-11T08:36:15.428Z,2.60
2022-08-11T08:38:50.552Z,2.50
2022-08-11T08:41:23.514Z,2.40
2022-08-11T08:43:52.400Z,2.55
2022-08-11T08:46:23.837Z,2.40
2022-08-11T08:48:53.318Z,2.30
2022-08-11T08:52:02.032Z,2.45
2022-08-11T08:54:23.778Z,2.30
2022-08-11T08:56:52.807Z,2.50
2022-08-11T08:59:22.670Z,2.42
2022-08-11T09:02:01.829Z,2.30
2022-08-11T09:04:29.146Z,2.25
2022-08-11T09:07:01.519Z,2.20
2022-08-11T09:09:31.900Z,2.10
2022-08-11T09:11:58.945Z,2.10
2022-08-11T09:14:50.706Z,2.10
2022-08-11T09:17:21.813Z,2.10
2022-08-11T09:19:56.531Z,2.10
2022-08-11T09:23:14.465Z,2.08
2022-08-11T09:25:57.817Z,1.90
2022-08-11T09:28:29.612Z,2.10
2022-08-11T09:30:57.561Z,2.00
2022-08-11T09:33:24.921Z,1.90
2022-08-11T09:35:53.052Z,2.00
2022-08-11T09:38:46.129Z,1.90
2022-08-11T09:41:15.731Z,2.00
2022-08-11T09:44:04.368Z,2.00
2022-08-11T09:46:33.138Z,1.90
2022-08-11T09:49:01.087Z,1.70
2022-08-11T09:51:32.564Z,2.00
2022-08-11T09:54:06.519Z,1.90
2022-08-11T09:56:52.462Z,2.00
2022-08-11T09:59:21.358Z,2.00
2022-08-11T10:01:50.882Z,2.00
2022-08-11T10:04:25.787Z,2.20
2022-08-11T10:07:04.634Z,1.83
2022-08-11T10:09:41.176Z,1.90
2022-08-11T10:12:14.992Z,2.00
2022-08-11T10:15:04.023Z,1.80
2022-08-11T10:17:36.861Z,2.00
2022-08-11T10:20:06.161Z,1.90
2022-08-11T10:22:52.588Z,1.90
2022-08-11T10:25:38.159Z,2.00
2022-08-11T10:28:28.982Z,1.80
2022-08-11T10:31:14.059Z,1.90
2022-08-11T10:34:00.222Z,1.80
2022-08-11T10:36:35.792Z,2.00
2022-08-11T10:39:04.877Z,1.80
2022-08-11T10:42:07.440Z,1.80
2022-08-11T10:44:41.180Z,1.85
2022-08-11T10:47:26.731Z,1.80
2022-08-11T10:50:13.149Z,1.80
2022-08-11T10:52:59.373Z,1.73
2022-08-11T10:55:44.791Z,1.70
2022-08-11T10:58:30.829Z,1.80
2022-08-11T11:00:58.966Z,1.90
2022-08-11T11:03:26.789Z,1.77
2022-08-11T11:06:27.664Z,1.60
2022-08-11T11:08:52.826Z,1.77
2022-08-11T11:11:49.715Z,1.92
2022-08-11T11:14:46.215Z,1.80
2022-08-11T11:17:46.173Z,2.00
2022-08-11T11:20:36.728Z,1.80
2022-08-11T11:23:08.937Z,1.95
2022-08-11T11:25:45.006Z,1.85
2022-08-11T11:28:51.193Z,1.83
2022-08-11T11:31:42.749Z,1.70
2022-08-11T11:34:27.357Z,1.75
2022-08-11T11:36:59.230Z,1.70
2022-08-11T11:39:29.380Z,1.83
2022-08-11T11:41:58.131Z,1.77
2022-08-11T11:44:25.741Z,1.70
2022-08-11T11:46:52.885Z,1.80
2022-08-11T11:51:52.864Z,1.92
2022-08-11T11:54:24.856Z,1.70
2022-08-11T11:56:54.842Z,1.70
2022-08-11T11:59:41.495Z,1.80
2022-08-11T12:02:12.132Z,1.75
2022-08-11T12:04:41.972Z,1.80
2022-08-11T12:07:28.123Z,2.00
2022-08-11T12:09:55.793Z,1.80
2022-08-11T12:12:41.430Z,1.70
2022-08-11T12:15:08.859Z,1.70
2022-08-11T12:17:36.526Z,1.70
2022-08-11T12:20:04.218Z,1.80
2022-08-11T12:22:50.272Z,1.60
2022-08-11T12:25:36.645Z,1.73
2022-08-11T12:28:03.623Z,1.88
2022-08-11T12:30:30.900Z,1.80
2022-08-11T12:32:58.027Z,1.85
2022-08-11T12:35:24.919Z,1.77
2022-08-11T12:38:08.006Z,1.63
2022-08-11T12:41:15.797Z,1.83
2022-08-11T12:44:04.741Z,1.75
2022-08-11T12:46:37.647Z,1.70
2022-08-11T12:49:40.691Z,1.90
2022-08-11T12:52:15.578Z,1.70
2022-08-11T12:54:57.195Z,1.70
2022-08-11T12:58:17.237Z,1.70
2022-08-11T13:01:06.410Z,1.65
2022-08-11T13:03:58.511Z,1.58
2022-08-11T13:06:25.784Z,1.60
2022-08-11T13:08:53.263Z,1.52
2022-08-11T13:11:55.585Z,1.58
2022-08-11T13:14:26.223Z,1.65
2022-08-11T13:17:11.915Z,1.60
2022-08-11T13:19:38.695Z,1.70
2022-08-11T13:22:07.510Z,1.63
2022-08-11T13:24:34.777Z,1.70
2022-08-11T13:27:02.490Z,1.60
2022-08-11T13:29:29.616Z,1.60
2022-08-11T13:32:00.499Z,1.63
2022-08-11T13:34:28.476Z,1.60
2022-08-11T13:36:57.219Z,1.70
2022-08-11T13:39:26.194Z,1.50
2022-08-11T13:41:57.409Z,1.60
2022-08-11T13:44:29.868Z,1.67
2022-08-11T13:46:58.813Z,1.60
2022-08-11T13:49:26.315Z,1.58
2022-08-11T13:51:54.463Z,1.70
2022-08-11T13:54:30.296Z,1.40
2022-08-11T13:57:00.772Z,1.60
2022-08-11T13:59:30.766Z,1.40
2022-08-11T14:02:22.217Z,1.50
2022-08-11T14:05:08.411Z,1.67
2022-08-11T14:07:39.282Z,1.42
2022-08-11T14:10:07.929Z,1.67
2022-08-11T14:12:54.758Z,1.58
2022-08-11T14:15:33.404Z,1.60
2022-08-11T14:18:14.847Z,1.60
2022-08-11T14:21:01.751Z,1.50
2022-08-11T14:23:31.733Z,1.50
2022-08-11T14:26:17.560Z,1.50
2022-08-11T14:28:45.476Z,1.55
2022-08-11T14:31:14.953Z,1.40
2022-08-11T14:34:00.820Z,1.40
2022-08-11T14:36:46.162Z,1.50
2022-08-11T14:39:22.827Z,1.50
2022-08-11T14:42:13.209Z,1.48
2022-08-11T14:45:22.627Z,1.50
2022-08-11T14:47:56.525Z,1.52
2022-08-11T14:50:25.123Z,1.50
2022-08-11T14:52:53.682Z,1.58
2022-08-11T14:55:39.745Z,1.50
2022-08-11T14:58:09.164Z,1.40
2022-08-11T15:00:36.947Z,1.40
2022-08-11T15:03:11.550Z,1.50
2022-08-11T15:05:52.376Z,1.50
2022-08-11T15:08:46.124Z,1.30
2022-08-11T15:11:33.237Z,1.40
2022-08-11T15:14:01.860Z,1.30
2022-08-11T15:16:47.792Z,1.40
2022-08-11T15:19:15.639Z,1.60
2022-08-11T15:22:01.434Z,1.50
2022-08-11T15:24:30.828Z,1.50
2022-08-11T15:27:18.410Z,1.40
2022-08-11T15:30:04.600Z,1.30
2022-08-11T15:32:51.141Z,1.40
2022-08-11T15:35:39.641Z,1.50
2022-08-11T15:38:07.396Z,1.48
2022-08-11T15:40:56.626Z,1.45
2022-08-11T15:43:47.174Z,1.40
2022-08-11T15:46:19.271Z,1.50
2022-08-11T15:49:03.976Z,1.60
2022-08-11T15:51:40.045Z,1.50
2022-08-11T15:54:13.202Z,1.60
2022-08-11T15:56:42.497Z,1.70
2022-08-11T15:59:41.662Z,1.40
2022-08-11T16:02:32.512Z,1.60
2022-08-11T16:05:01.965Z,1.63
2022-08-11T16:07:31.560Z,1.50
2022-08-11T16:10:09.359Z,1.50
2022-08-11T16:13:03.758Z,1.50
2022-08-11T16:15:51.321Z,1.50
2022-08-11T16:18:21.226Z,1.60
2022-08-11T16:20:51.535Z,1.50
2022-08-11T16:23:18.548Z,1.58
2022-08-11T16:27:04.683Z,1.42
2022-08-11T16:28:34.388Z,1.60
2022-08-11T16:31:01.842Z,1.67
2022-08-11T16:33:48.332Z,1.50
2022-08-11T16:36:35.701Z,1.60
2022-08-11T16:39:03.844Z,1.60
2022-08-11T16:41:52.277Z,1.50
2022-08-11T16:44:38.651Z,1.60
2022-08-11T16:47:12.388Z,1.50
2022-08-11T16:49:44.229Z,1.50
2022-08-11T16:52:20.414Z,1.40
2022-08-11T16:54:49.922Z,1.70
2022-08-11T16:57:42.964Z,1.50
2022-08-11T17:00:12.446Z,1.60
2022-08-11T17:03:03.966Z,1.50
2022-08-11T17:05:54.489Z,1.70
2022-08-11T17:08:57.210Z,1.55
2022-08-11T17:11:45.855Z,1.40
2022-08-11T17:14:15.378Z,1.60
2022-08-11T17:16:42.803Z,1.60
2022-08-11T17:19:13.339Z,1.60
2022-08-11T17:22:07.343Z,1.57
2022-08-11T17:24:39.653Z,1.50
2022-08-11T17:27:08.682Z,1.60
2022-08-11T17:29:54.380Z,1.58
2022-08-11T17:32:55.978Z,1.60
2022-08-11T17:35:31.728Z,1.70
2022-08-11T17:38:01.532Z,1.80
2022-08-11T17:40:28.878Z,1.63
2022-08-11T17:43:16.201Z,1.60
2022-08-11T17:46:02.983Z,1.70
2022-08-11T17:48:35.208Z,1.65
2022-08-11T17:51:08.819Z,1.80
2022-08-11T17:54:18.225Z,1.90
2022-08-11T17:57:03.946Z,1.65
2022-08-11T17:59:50.128Z,1.60
2022-08-11T18:03:10.206Z,1.60
2022-08-11T18:05:43.599Z,1.52
2022-08-11T18:08:31.069Z,1.60
2022-08-11T18:12:05.815Z,1.63
2022-08-11T18:14:25.681Z,1.30
2022-08-11T18:17:11.414Z,1.40
2022-08-11T18:19:56.910Z,1.90
2022-08-11T18:22:45.648Z,1.75
2022-08-11T18:25:39.790Z,1.50
2022-08-11T18:28:30.389Z,1.50
2022-08-11T18:31:19.058Z,1.60
2022-08-11T18:34:09.567Z,1.55
2022-08-11T18:36:59.018Z,1.55
2022-08-11T18:39:54.674Z,1.40
2022-08-11T18:42:42.823Z,1.67
2022-08-11T18:45:30.272Z,1.52
2022-08-11T18:48:23.437Z,1.60
2022-08-11T18:51:30.428Z,1.40
2022-08-11T18:54:23.648Z,1.70
2022-08-11T18:57:09.285Z,1.75
2022-08-11T18:59:59.513Z,1.70
2022-08-11T19:02:49.275Z,1.65
2022-08-11T19:06:35.246Z,1.70
2022-08-11T19:08:46.242Z,1.95
2022-08-11T19:11:31.791Z,1.85
2022-08-11T19:14:19.490Z,1.75
2022-08-11T19:17:05.351Z,1.95
2022-08-11T19:19:51.361Z,1.80
2022-08-11T19:22:36.958Z,1.95
2022-08-11T19:25:25.537Z,1.60
2022-08-11T19:28:12.709Z,1.85
2022-08-11T19:30:58.779Z,1.80
2022-08-11T19:34:00.276Z,1.90
2022-08-11T19:36:50.645Z,1.92
2022-08-11T19:39:38.276Z,1.90
2022-08-11T19:42:28.651Z,1.80
2022-08-11T19:45:15.059Z,2.03
2022-08-11T19:48:21.087Z,1.90
2022-08-11T19:51:07.061Z,2.10
2022-08-11T19:53:53.308Z,2.25
2022-08-11T19:56:39.950Z,2.35
2022-08-11T19:59:26.399Z,2.17
2022-08-11T20:02:14.345Z,2.13
2022-08-11T20:05:00.440Z,2.20
2022-08-11T20:07:46.918Z,2.20
2022-08-11T20:10:35.002Z,2.25
2022-08-11T20:13:21.722Z,2.70
2022-08-11T20:16:07.364Z,2.70
2022-08-11T20:18:53.555Z,2.60
2022-08-11T20:21:39.603Z,2.70
2022-08-11T20:24:25.505Z,2.65
2022-08-11T20:27:24.734Z,2.47
2022-08-11T20:30:11.469Z,2.50
2022-08-11T20:32:58.641Z,2.50
2022-08-11T20:35:44.699Z,2.50
2022-08-11T20:38:30.504Z,2.40
2022-08-11T20:41:16.119Z,2.40
2022-08-11T20:44:06.739Z,2.20
2022-08-11T20:46:56.984Z,1.97
2022-08-11T20:49:50.607Z,2.10
2022-08-11T20:52:40.384Z,2.47
2022-08-11T20:55:46.331Z,2.20
2022-08-11T20:58:54.856Z,2.47
2022-08-11T21:01:42.148Z,2.43
2022-08-11T21:04:27.690Z,2.40
2022-08-11T21:07:17.175Z,2.67
2022-08-11T21:10:23.308Z,2.30
2022-08-11T21:13:25.728Z,2.70
2022-08-11T21:16:25.099Z,2.43
2022-08-11T21:19:14.347Z,2.50
2022-08-11T21:22:00.354Z,2.47
2022-08-11T21:24:47.998Z,2.50
2022-08-11T21:27:36.001Z,2.50
2022-08-11T21:30:21.207Z,2.50
2022-08-11T21:33:06.709Z,2.50
2022-08-11T21:35:52.250Z,2.60
2022-08-11T21:38:37.847Z,2.77
2022-08-11T21:41:24.305Z,2.60
2022-08-11T21:44:10.198Z,2.53
2022-08-11T21:46:57.318Z,2.80
2022-08-11T21:49:44.044Z,3.00
2022-08-11T21:52:29.894Z,2.90
2022-08-11T21:55:15.775Z,2.73
2022-08-11T21:58:03.039Z,2.77
2022-08-11T22:00:48.583Z,2.80
2022-08-11T22:03:39.526Z,2.70
2022-08-11T22:06:36.664Z,2.40
2022-08-11T22:09:22.530Z,2.80
2022-08-11T22:12:34.017Z,2.90
2022-08-11T22:15:14.182Z,2.70
2022-08-11T22:17:59.701Z,3.00
2022-08-11T22:20:46.572Z,3.03
2022-08-11T22:23:36.164Z,2.80
2022-08-11T22:26:22.655Z,2.83
2022-08-11T22:29:08.372Z,2.70
2022-08-11T22:31:55.650Z,2.57
2022-08-11T22:34:51.247Z,2.80
2022-08-11T22:37:40.928Z,2.70
2022-08-11T22:40:28.145Z,2.70
2022-08-11T22:43:13.845Z,2.70
2022-08-11T22:45:59.518Z,2.40
2022-08-11T22:48:48.619Z,2.63
2022-08-11T22:51:34.744Z,2.42
2022-08-11T22:54:23.605Z,2.55
2022-08-11T22:57:09.706Z,2.80
2022-08-11T22:59:55.707Z,2.47
2022-08-11T23:02:41.656Z,2.60
2022-08-11T23:05:27.861Z,2.90
2022-08-11T23:08:15.792Z,2.80
2022-08-11T23:11:01.937Z,2.80
2022-08-11T23:13:49.562Z,3.00
2022-08-11T23:16:39.037Z,2.90
2022-08-11T23:20:07.707Z,2.70
2022-08-11T23:22:37.190Z,2.80
2022-08-11T23:25:36.499Z,2.63
2022-08-11T23:28:22.253Z,2.50
2022-08-11T23:31:09.865Z,2.50
2022-08-11T23:33:58.138Z,2.45
2022-08-11T23:36:47.677Z,2.55
2022-08-11T23:39:34.799Z,2.40
2022-08-11T23:42:21.493Z,2.22
2022-08-11T23:45:07.262Z,2.40
2022-08-11T23:47:55.400Z,2.47
2022-08-11T23:50:40.983Z,2.28
2022-08-11T23:53:26.829Z,2.30
2022-08-11T23:56:12.212Z,2.28
2022-08-11T23:58:58.223Z,2.20
